Time;durP1;ratioP1;P1;durP2;ratioP2;P2;SDS_P1;SDS_P2;PMS_P1;PMS_P2;Temp;Humidity;BMP_temperature;BMP_pressure;BME280_temperature;BME280_humidity;BME280_pressure;Samples;Min_cycle;Max_cycle;Signal;HPM_P1;HPM_P2
2020/12/18 00:01:29;;;;;;;8.98;4.95;;;9.70;78.10;;;;;;4989616;28;81143;-73
2020/12/18 00:04:02;;;;;;;10.55;5.82;;;9.60;78.20;;;;;;4989433;28;80450;-73
2020/12/18 00:06:32;;;;;;;;;;;9.60;78.30;;;;;;4989714;28;81267;-73
2020/12/18 00:08:59;;;;;;;9.30;5.38;;;9.50;78.00;;;;;;4977648;28;80484;-73
2020/12/18 00:11:47;;;;;;;7.78;4.50;;;9.40;78.50;;;;;;5006074;28;79950;-73
2020/12/18 00:14:15;;;;;;;8.50;4.90;;;9.40;78.50;;;;;;5007016;28;80338;-73
2020/12/18 00:16:45;;;;;;;8.02;4.82;;;9.30;78.60;;;;;;5005863;28;79946;-74
2020/12/18 00:19:12;;;;;;;8.48;4.82;;;9.30;78.70;;;;;;4986599;28;80958;-74
2020/12/18 00:21:39;;;;;;;7.65;4.80;;;9.20;78.70;;;;;;5007304;28;82377;-73
2020/12/18 00:24:07;;;;;;;9.50;4.97;;;9.20;78.80;;;;;;4988876;28;80768;-72
2020/12/18 00:26:36;;;;;;;7.95;4.65;;;9.10;78.90;;;;;;4972788;28;80960;-75
2020/12/18 00:29:06;;;;;;;8.48;5.40;;;9.10;78.80;;;;;;5006071;28;81035;-73
2020/12/18 00:31:32;;;;;;;7.70;3.80;;;9.10;78.70;;;;;;4972985;28;81929;-71
2020/12/18 00:33:59;;;;;;;8.13;4.85;;;9.00;78.60;;;;;;5007272;28;80207;-71
2020/12/18 00:36:24;;;;;;;7.75;4.85;;;9.00;78.40;;;;;;5007093;28;80308;-72
2020/12/18 00:38:50;;;;;;;8.32;4.60;;;9.00;78.40;;;;;;4989094;28;80641;-70
2020/12/18 00:41:16;;;;;;;10.23;4.43;;;9.10;78.40;;;;;;5007388;28;81067;-71
2020/12/18 00:43:42;;;;;;;6.80;4.10;;;9.10;78.30;;;;;;5006309;28;81647;-71
2020/12/18 00:46:08;;;;;;;9.13;4.32;;;9.20;78.00;;;;;;4988640;28;80887;-72
2020/12/18 00:48:34;;;;;;;9.00;4.40;;;9.20;77.90;;;;;;5006897;28;80192;-72
2020/12/18 00:50:59;;;;;;;7.20;4.15;;;9.30;77.70;;;;;;5006751;28;80676;-71
2020/12/18 00:53:25;;;;;;;8.45;4.35;;;9.30;77.50;;;;;;5006303;28;80818;-73
2020/12/18 00:55:51;;;;;;;7.63;4.03;;;9.30;77.40;;;;;;5006571;28;80554;-71
2020/12/18 00:58:16;;;;;;;9.55;4.57;;;9.30;77.40;;;;;;4988681;28;81396;-71
2020/12/18 01:00:42;;;;;;;8.10;4.93;;;9.30;77.50;;;;;;5006485;28;80489;-72
2020/12/18 01:03:08;;;;;;;8.55;4.47;;;9.30;77.60;;;;;;5006264;28;82105;-71
2020/12/18 01:05:33;;;;;;;7.47;4.57;;;9.30;77.60;;;;;;5006486;28;80925;-71
2020/12/18 01:07:59;;;;;;;10.10;4.68;;;9.30;77.50;;;;;;4988209;28;82644;-72
2020/12/18 01:10:25;;;;;;;6.57;4.10;;;9.30;77.40;;;;;;5006437;28;80745;-71
2020/12/18 01:12:51;;;;;;;5.72;3.65;;;9.40;77.20;;;;;;4988192;28;82068;-72
2020/12/18 01:15:17;;;;;;;7.97;4.40;;;9.40;77.10;;;;;;5006147;28;80578;-71
2020/12/18 01:17:43;;;;;;;6.93;4.22;;;9.50;76.90;;;;;;5006476;28;80318;-71
2020/12/18 01:20:09;;;;;;;7.38;3.97;;;9.40;76.70;;;;;;5006493;28;80773;-71
2020/12/18 01:22:35;;;;;;;8.88;4.53;;;9.40;76.60;;;;;;5006402;28;79873;-72
2020/12/18 01:25:00;;;;;;;5.72;3.85;;;9.40;76.60;;;;;;5006418;28;80327;-72
2020/12/18 01:27:26;;;;;;;6.07;4.15;;;9.40;76.70;;;;;;4987826;28;83226;-73
2020/12/18 01:29:52;;;;;;;6.35;4.10;;;9.30;76.80;;;;;;5006063;28;79949;-73
2020/12/18 01:32:18;;;;;;;7.57;4.43;;;9.30;76.90;;;;;;5005742;28;82225;-72
2020/12/18 01:34:44;;;;;;;7.82;4.45;;;9.20;77.10;;;;;;5005943;28;81053;-73
2020/12/18 01:37:10;;;;;;;10.88;5.13;;;9.20;77.20;;;;;;5006623;28;80324;-73
2020/12/18 01:39:36;;;;;;;10.88;5.63;;;9.00;77.30;;;;;;4988005;28;83756;-74
2020/12/18 01:42:02;;;;;;;8.55;4.72;;;8.90;77.60;;;;;;5006328;28;80576;-74
2020/12/18 01:44:28;;;;;;;9.02;4.65;;;8.90;77.80;;;;;;5006180;28;80961;-73
2020/12/18 01:46:54;;;;;;;9.38;5.25;;;8.90;77.90;;;;;;5005611;28;80432;-72
2020/12/18 01:49:20;;;;;;;13.10;4.78;;;8.80;78.00;;;;;;5006094;28;80565;-72
2020/12/18 01:51:48;;;;;;;6.80;4.00;;;8.70;78.10;;;;;;5005448;28;81818;-73
2020/12/18 01:54:16;;;;;;;8.35;5.05;;;8.60;78.30;;;;;;5005988;28;80707;-74
2020/12/18 01:56:42;;;;;;;10.52;4.90;;;8.50;78.40;;;;;;5005546;28;80405;-73
2020/12/18 01:59:08;;;;;;;7.93;4.50;;;8.50;78.40;;;;;;5008194;28;80441;-73
2020/12/18 02:01:34;;;;;;;8.65;4.45;;;8.40;78.50;;;;;;5009515;28;80179;-73
2020/12/18 02:04:01;;;;;;;8.43;4.63;;;8.40;78.60;;;;;;5009725;28;80271;-73
2020/12/18 02:06:30;;;;;;;9.95;5.15;;;8.40;78.70;;;;;;4991341;28;79853;-73
2020/12/18 02:08:56;;;;;;;8.38;4.68;;;8.40;78.80;;;;;;5009154;28;79763;-72
2020/12/18 02:11:23;;;;;;;7.32;4.43;;;8.30;78.80;;;;;;5009043;28;79975;-72
2020/12/18 02:13:56;;;;;;;8.10;4.50;;;8.30;78.80;;;;;;4990468;28;82851;-71
2020/12/18 02:16:23;;;;;;;7.95;5.28;;;8.30;78.90;;;;;;5008930;28;80182;-72
2020/12/18 02:18:49;;;;;;;8.10;4.32;;;8.20;78.90;;;;;;4990942;28;80806;-72
2020/12/18 02:21:15;;;;;;;9.32;4.57;;;8.20;79.00;;;;;;5009127;28;80310;-70
2020/12/18 02:23:48;;;;;;;10.23;5.28;;;8.10;79.00;;;;;;4990304;28;83050;-71
2020/12/18 02:26:15;;;;;;;8.18;4.22;;;8.10;79.00;;;;;;5008908;28;80246;-71
2020/12/18 02:28:48;;;;;;;8.27;4.40;;;8.00;79.00;;;;;;4990913;28;82242;-73
2020/12/18 02:31:14;;;;;;;7.40;4.68;;;7.90;79.10;;;;;;5009083;28;80147;-71
2020/12/18 02:33:41;;;;;;;11.93;5.15;;;7.90;79.10;;;;;;4990713;28;80820;-71
2020/12/18 02:36:07;;;;;;;8.43;4.90;;;7.90;79.20;;;;;;5008899;28;79833;-73
2020/12/18 02:38:35;;;;;;;8.73;4.60;;;7.90;79.30;;;;;;5008489;28;82262;-72
2020/12/18 02:41:01;;;;;;;7.30;4.13;;;7.90;79.30;;;;;;4990744;28;80479;-75
2020/12/18 02:43:27;;;;;;;8.77;4.60;;;7.90;79.20;;;;;;5008311;28;81173;-74
2020/12/18 02:45:53;;;;;;;7.18;4.65;;;7.90;79.20;;;;;;5008633;28;80334;-74
2020/12/18 02:48:19;;;;;;;8.38;4.93;;;7.90;79.20;;;;;;5008425;28;81067;-73
2020/12/18 02:50:49;;;;;;;8.50;5.50;;;7.90;79.10;;;;;;4990259;28;81684;-73
2020/12/18 02:53:22;;;;;;;9.30;5.20;;;7.80;79.10;;;;;;5008795;28;79837;-72
2020/12/18 02:55:48;;;;;;;10.73;4.63;;;7.80;79.10;;;;;;4988439;28;80038;-72
2020/12/18 02:58:14;;;;;;;5.45;3.75;;;7.70;79.10;;;;;;4973788;28;81252;-73
2020/12/18 03:00:41;;;;;;;9.75;4.70;;;7.60;79.20;;;;;;5006522;28;80329;-73
2020/12/18 03:03:07;;;;;;;8.23;4.20;;;7.60;79.20;;;;;;4990741;28;80778;-73
2020/12/18 03:05:33;;;;;;;9.50;4.60;;;7.60;79.20;;;;;;4990162;28;81307;-73
2020/12/18 03:08:00;;;;;;;6.88;4.05;;;7.60;79.20;;;;;;4990258;28;80861;-73
2020/12/18 03:10:26;;;;;;;7.40;4.45;;;7.50;79.00;;;;;;5007116;28;80324;-72
2020/12/18 03:12:52;;;;;;;7.18;4.70;;;7.50;79.00;;;;;;5008239;28;80372;-71
2020/12/18 03:15:18;;;;;;;7.97;3.90;;;7.50;79.00;;;;;;4990025;28;82366;-72
2020/12/18 03:17:44;;;;;;;7.32;4.57;;;7.40;78.90;;;;;;5008161;28;80487;-71
2020/12/18 03:20:10;;;;;;;8.57;4.25;;;7.40;78.70;;;;;;5008410;28;79783;-71
2020/12/18 03:22:37;;;;;;;9.07;4.60;;;7.30;78.70;;;;;;5008379;28;80600;-71
2020/12/18 03:25:03;;;;;;;7.03;3.90;;;7.30;78.80;;;;;;4989878;28;82934;-71
2020/12/18 03:27:29;;;;;;;7.57;4.38;;;7.30;78.60;;;;;;4989840;28;83363;-71
2020/12/18 03:29:55;;;;;;;5.63;3.90;;;7.30;78.60;;;;;;5007557;28;80166;-72
2020/12/18 03:32:21;;;;;;;6.07;3.85;;;7.40;78.40;;;;;;4989888;28;83905;-71
2020/12/18 03:34:47;;;;;;;7.28;4.15;;;7.40;78.20;;;;;;5007354;28;82294;-71
2020/12/18 03:37:12;;;;;;;6.65;3.85;;;7.50;77.90;;;;;;5008219;28;79920;-71
2020/12/18 03:39:38;;;;;;;7.40;4.20;;;7.60;77.50;;;;;;5007531;28;81934;-72
2020/12/18 03:42:04;;;;;;;7.50;4.30;;;7.60;77.20;;;;;;5007805;28;80505;-72
2020/12/18 03:44:29;;;;;;;7.32;4.18;;;7.60;77.00;;;;;;5008279;28;79734;-72
2020/12/18 03:46:55;;;;;;;7.68;4.18;;;7.70;76.80;;;;;;4989871;28;81359;-72
2020/12/18 03:49:21;;;;;;;7.18;4.47;;;7.60;76.50;;;;;;5007726;28;82334;-73
2020/12/18 03:51:47;;;;;;;6.53;4.22;;;7.70;76.60;;;;;;4989525;28;82158;-73
2020/12/18 03:54:12;;;;;;;7.05;4.07;;;7.70;76.40;;;;;;4989850;28;81726;-70
2020/12/18 03:56:38;;;;;;;12.20;4.22;;;7.80;76.10;;;;;;4989525;28;82845;-73
2020/12/18 03:59:04;;;;;;;6.32;3.50;;;7.80;76.00;;;;;;4989077;28;80135;-72
2020/12/18 04:01:29;;;;;;;6.78;4.13;;;7.80;76.20;;;;;;4989272;28;80921;-70
2020/12/18 04:03:55;;;;;;;6.35;3.50;;;7.90;76.10;;;;;;4989292;28;81123;-73
2020/12/18 04:06:21;;;;;;;5.93;3.42;;;7.80;75.90;;;;;;4989337;28;82979;-73
2020/12/18 04:08:50;;;;;;;6.75;4.15;;;7.80;76.10;;;;;;4988504;28;82520;-73
2020/12/18 04:11:16;;;;;;;6.30;3.58;;;7.80;76.10;;;;;;4987728;28;82767;-73
2020/12/18 04:13:48;;;;;;;7.70;4.63;;;7.80;76.10;;;;;;5007083;28;80317;-73
2020/12/18 04:16:15;;;;;;;6.65;4.10;;;7.70;76.10;;;;;;4973032;28;81268;-71
2020/12/18 04:18:40;;;;;;;8.05;4.35;;;7.70;76.20;;;;;;4988411;28;80291;-72
2020/12/18 04:21:06;;;;;;;6.85;4.13;;;7.70;76.10;;;;;;4988617;28;80678;-72
2020/12/18 04:23:32;;;;;;;9.23;5.20;;;7.70;76.20;;;;;;5007456;28;80709;-72
2020/12/18 04:25:57;;;;;;;7.63;4.63;;;7.70;76.20;;;;;;4988774;28;80632;-71
2020/12/18 04:28:23;;;;;;;6.68;4.20;;;7.70;76.20;;;;;;4989138;28;80629;-72
2020/12/18 04:30:50;;;;;;;10.23;4.53;;;7.60;76.20;;;;;;5007277;28;81010;-72
2020/12/18 04:33:16;;;;;;;8.02;4.50;;;7.50;76.40;;;;;;4989169;28;80550;-72
2020/12/18 04:35:41;;;;;;;11.48;4.40;;;7.40;76.60;;;;;;5007063;28;80809;-74
2020/12/18 04:38:12;;;;;;;7.75;3.90;;;7.30;76.80;;;;;;4988744;28;81515;-71
2020/12/18 04:40:39;;;;;;;9.32;4.60;;;7.20;77.10;;;;;;5007362;28;80569;-72
2020/12/18 04:43:06;;;;;;;9.15;4.50;;;7.20;77.40;;;;;;5007076;28;79908;-71
2020/12/18 04:45:32;;;;;;;7.80;5.03;;;7.10;77.40;;;;;;4988930;28;81138;-72
2020/12/18 04:48:00;;;;;;;7.25;4.15;;;7.10;77.50;;;;;;4988835;28;82378;-72
2020/12/18 04:50:26;;;;;;;7.65;4.60;;;7.00;77.60;;;;;;5006802;28;80655;-70
2020/12/18 04:52:56;;;;;;;12.30;4.70;;;7.00;77.80;;;;;;4988907;28;82254;-72
2020/12/18 04:55:26;;;;;;;10.05;4.75;;;7.00;78.00;;;;;;4988380;28;81870;-71
2020/12/18 04:57:52;;;;;;;7.82;5.15;;;6.90;78.20;;;;;;4988544;28;80666;-71
2020/12/18 05:00:20;;;;;;;7.35;4.30;;;7.00;78.10;;;;;;5006490;28;82014;-73
2020/12/18 05:02:46;;;;;;;7.72;4.50;;;7.00;78.20;;;;;;5006598;28;80058;-71
2020/12/18 05:05:12;;;;;;;10.13;5.60;;;7.00;78.20;;;;;;4988847;28;80722;-71
2020/12/18 05:07:38;;;;;;;8.40;4.22;;;7.00;78.20;;;;;;5006656;28;80186;-72
2020/12/18 05:10:08;;;;;;;8.38;3.97;;;6.90;78.20;;;;;;5007274;28;79868;-69
2020/12/18 05:12:35;;;;;;;9.38;4.50;;;6.90;78.30;;;;;;4988623;28;81896;-70
2020/12/18 05:15:05;;;;;;;7.25;4.45;;;6.80;78.50;;;;;;5006709;28;80599;-72
2020/12/18 05:17:30;;;;;;;8.05;4.60;;;6.70;78.60;;;;;;4988835;28;83679;-73
2020/12/18 05:19:58;;;;;;;7.38;4.43;;;6.80;78.80;;;;;;5006402;28;80912;-72
2020/12/18 05:22:26;;;;;;;7.22;4.13;;;6.80;78.80;;;;;;4988227;28;81401;-72
2020/12/18 05:24:53;;;;;;;8.85;5.00;;;6.80;78.90;;;;;;5006402;28;79862;-73
2020/12/18 05:27:21;;;;;;;9.30;5.22;;;6.80;78.90;;;;;;5006584;28;79850;-72
2020/12/18 05:29:47;;;;;;;8.45;5.07;;;6.80;79.00;;;;;;5006108;28;82020;-72
2020/12/18 05:32:13;;;;;;;8.55;4.57;;;6.90;79.10;;;;;;4988178;28;83580;-72
2020/12/18 05:34:40;;;;;;;9.63;4.95;;;6.90;79.10;;;;;;5006169;28;80440;-72
2020/12/18 05:37:06;;;;;;;12.50;4.82;;;6.90;78.90;;;;;;5006525;28;79761;-71
2020/12/18 05:39:37;;;;;;;9.43;4.75;;;7.00;78.80;;;;;;4988427;28;83958;-71
2020/12/18 05:42:04;;;;;;;9.10;5.15;;;7.00;78.50;;;;;;4988440;28;83641;-70
2020/12/18 05:44:31;;;;;;;8.48;4.63;;;7.20;78.30;;;;;;5006576;28;80862;-73
2020/12/18 05:47:08;;;;;;;10.85;4.68;;;7.30;77.90;;;;;;4988254;28;80080;-70
2020/12/18 05:49:37;;;;;;;9.32;4.47;;;7.40;77.50;;;;;;5006370;28;79800;-71
2020/12/18 05:52:04;;;;;;;12.52;5.47;;;7.40;77.20;;;;;;5006340;28;80214;-71
2020/12/18 05:54:35;;;;;;;7.40;4.40;;;7.60;77.00;;;;;;5007325;28;80631;-70
2020/12/18 05:57:12;;;;;;;10.25;4.40;;;7.70;76.60;;;;;;5005821;28;80465;-70
2020/12/18 05:59:45;;;;;;;9.18;4.63;;;7.80;76.30;;;;;;4987922;28;82577;-72
2020/12/18 06:02:15;;;;;;;;;;;7.80;76.20;;;;;;4988506;28;83017;-71
2020/12/18 06:04:42;;;;;;;7.78;4.45;;;7.70;76.20;;;;;;5010946;28;75452;-72
2020/12/18 06:07:11;;;;;;;11.48;4.88;;;7.80;76.40;;;;;;5005622;28;80015;-73
2020/12/18 06:09:39;;;;;;;9.77;4.90;;;7.80;76.20;;;;;;4970925;28;80765;-73
2020/12/18 06:12:12;;;;;;;8.05;5.18;;;7.90;76.20;;;;;;4987561;28;80299;-73
2020/12/18 06:14:42;;;;;;;;;;;7.90;76.30;;;;;;4987895;28;81114;-73
2020/12/18 06:17:11;;;;;;;8.52;4.93;;;7.90;76.20;;;;;;4992187;28;80407;-73
2020/12/18 06:19:45;;;;;;;11.43;5.35;;;7.90;76.60;;;;;;4987194;28;80711;-74
2020/12/18 06:22:23;;;;;;;11.13;5.28;;;7.90;76.80;;;;;;5004594;28;80076;-74
2020/12/18 06:24:57;;;;;;;11.48;6.07;;;8.00;76.80;;;;;;5004195;28;80869;-74
2020/12/18 06:27:25;;;;;;;10.15;4.90;;;8.10;76.80;;;;;;4976635;28;80041;-74
2020/12/18 06:30:13;;;;;;;12.60;5.95;;;8.10;76.90;;;;;;4986706;28;81370;-74
2020/12/18 06:32:50;;;;;;;14.07;5.82;;;8.30;77.00;;;;;;5001148;28;80323;-75
2020/12/18 06:35:38;;;;;;;11.82;5.10;;;8.30;77.30;;;;;;5004706;28;81251;-72
2020/12/18 06:38:24;;;;;;;10.98;5.40;;;8.40;77.50;;;;;;5003394;28;80075;-73
2020/12/18 06:41:32;;;;;;;10.30;5.63;;;8.40;77.40;;;;;;4991414;28;80572;-74
2020/12/18 06:44:02;;;;;;;8.77;5.30;;;8.40;77.40;;;;;;4971635;28;80509;-73
2020/12/18 06:46:29;;;;;;;10.52;5.88;;;8.40;77.60;;;;;;4974370;28;81150;-74
2020/12/18 06:49:13;;;;;;;11.57;5.82;;;8.40;77.60;;;;;;4973880;28;80541;-74
2020/12/18 06:51:50;;;;;;;13.68;6.18;;;8.50;77.70;;;;;;5007276;28;79885;-74
2020/12/18 06:54:39;;;;;;;12.07;7.03;;;8.50;77.70;;;;;;4996955;28;79916;-74
2020/12/18 06:57:21;;;;;;;15.30;7.70;;;8.60;77.60;;;;;;5007450;28;80901;-73
2020/12/18 06:59:48;;;;;;;14.88;6.55;;;8.70;77.50;;;;;;4989987;28;80445;-74
2020/12/18 07:02:33;;;;;;;10.10;6.35;;;8.70;77.40;;;;;;5004422;28;80765;-72
2020/12/18 07:05:00;;;;;;;18.88;7.28;;;8.80;77.20;;;;;;5007598;28;80474;-70
2020/12/18 07:07:26;;;;;;;17.73;6.78;;;8.70;77.20;;;;;;5008332;28;80731;-71
2020/12/18 07:09:53;;;;;;;13.40;7.20;;;8.80;77.30;;;;;;5008334;28;80193;-68
2020/12/18 07:12:18;;;;;;;17.55;7.25;;;8.90;77.30;;;;;;5008359;28;81205;-68
2020/12/18 07:14:55;;;;;;;14.15;7.40;;;8.90;77.30;;;;;;4989386;28;80593;-67
2020/12/18 07:17:22;;;;;;;20.05;9.65;;;8.90;77.50;;;;;;5008334;28;80556;-66
2020/12/18 07:19:47;;;;;;;17.83;8.93;;;9.00;77.50;;;;;;5007796;28;80196;-72
2020/12/18 07:22:13;;;;;;;25.60;9.63;;;8.90;77.50;;;;;;4989792;28;82686;-66
2020/12/18 07:24:41;;;;;;;24.90;9.73;;;9.00;77.70;;;;;;5008073;28;80268;-70
2020/12/18 07:27:06;;;;;;;26.77;10.50;;;9.10;77.70;;;;;;5007966;28;80457;-68
2020/12/18 07:29:32;;;;;;;28.15;10.98;;;9.10;77.60;;;;;;4987029;28;82618;-71
2020/12/18 07:32:02;;;;;;;21.42;11.10;;;9.20;77.50;;;;;;4986866;28;82658;-71
2020/12/18 07:34:27;;;;;;;19.98;8.82;;;9.20;77.50;;;;;;4987097;28;84863;-69
2020/12/18 07:36:53;;;;;;;20.02;9.55;;;9.20;77.40;;;;;;5008330;28;80739;-69
2020/12/18 07:39:19;;;;;;;18.38;8.38;;;9.20;77.40;;;;;;5008472;28;80305;-68
2020/12/18 07:41:44;;;;;;;18.77;9.63;;;9.20;77.30;;;;;;5008264;28;81074;-66
2020/12/18 07:44:10;;;;;;;18.60;9.25;;;9.30;77.20;;;;;;5007940;28;81135;-68
2020/12/18 07:46:38;;;;;;;29.30;10.57;;;9.30;77.20;;;;;;5008596;28;79750;-69
2020/12/18 07:49:11;;;;;;;26.83;10.05;;;9.40;77.10;;;;;;5005323;28;82553;-69
2020/12/18 07:51:38;;;;;;;21.77;10.15;;;9.40;77.10;;;;;;5005429;28;83170;-67
2020/12/18 07:54:03;;;;;;;24.40;10.30;;;9.40;76.90;;;;;;5004943;28;82574;-67
2020/12/18 07:56:29;;;;;;;38.03;12.35;;;9.40;76.70;;;;;;4985855;28;86755;-68
2020/12/18 07:59:03;;;;;;;22.52;11.05;;;9.40;76.60;;;;;;5004794;28;83015;-67
2020/12/18 08:01:29;;;;;;;34.00;10.73;;;9.40;76.60;;;;;;5004840;28;83377;-67
2020/12/18 08:04:09;;;;;;;23.00;10.88;;;9.50;76.60;;;;;;4986700;28;84565;-67
2020/12/18 08:06:39;;;;;;;22.95;10.93;;;9.50;76.60;;;;;;5005092;28;83905;-68
2020/12/18 08:09:14;;;;;;;28.33;10.75;;;9.50;76.50;;;;;;4986428;28;83363;-69
2020/12/18 08:11:42;;;;;;;23.60;12.30;;;9.50;76.70;;;;;;4986423;28;84842;-70
2020/12/18 08:14:09;;;;;;;28.17;13.88;;;9.60;76.70;;;;;;4986223;28;83352;-67
2020/12/18 08:16:35;;;;;;;32.85;12.18;;;9.60;76.70;;;;;;4986109;28;85466;-68
2020/12/18 08:19:07;;;;;;;29.83;12.27;;;9.70;76.60;;;;;;4986606;28;86178;-68
2020/12/18 08:21:37;;;;;;;29.40;11.63;;;9.70;76.60;;;;;;4986402;28;86232;-68
2020/12/18 08:24:25;;;;;;;26.92;12.45;;;9.80;76.50;;;;;;4986282;28;85884;-68
2020/12/18 08:27:00;;;;;;;29.20;13.70;;;9.90;76.40;;;;;;4986866;28;82682;-68
2020/12/18 08:29:31;;;;;;;35.10;12.50;;;9.80;76.40;;;;;;5004295;28;83263;-67
2020/12/18 08:31:58;;;;;;;28.77;13.88;;;9.90;76.30;;;;;;5005196;28;82488;-67
2020/12/18 08:34:30;;;;;;;28.55;12.73;;;9.90;76.20;;;;;;4986129;28;82983;-67
2020/12/18 08:36:57;;;;;;;33.97;12.18;;;9.90;76.30;;;;;;4986672;28;86246;-67
2020/12/18 08:39:28;;;;;;;18.95;10.23;;;9.90;76.40;;;;;;4985883;28;84118;-68
2020/12/18 08:41:55;;;;;;;23.27;9.85;;;9.80;75.30;;;;;;5004163;28;84531;-67
2020/12/18 08:44:27;;;;;;;21.00;9.88;;;9.80;75.10;;;;;;5006783;28;82505;-68
2020/12/18 08:46:53;;;;;;;20.17;9.18;;;9.80;74.40;;;;;;5006724;28;82168;-70
2020/12/18 08:49:27;;;;;;;24.48;10.02;;;9.80;73.80;;;;;;5006934;28;80205;-70
2020/12/18 08:51:55;;;;;;;21.02;9.55;;;9.90;73.50;;;;;;5004349;28;82790;-70
2020/12/18 08:54:28;;;;;;;18.75;9.85;;;9.80;73.50;;;;;;4989119;28;84049;-69
2020/12/18 08:57:09;;;;;;;;;;;9.80;73.40;;;;;;5007181;28;80651;-68
2020/12/18 08:59:35;;;;;;;19.38;9.60;;;9.80;73.30;;;;;;5012039;28;80181;-69
2020/12/18 09:02:01;;;;;;;16.98;8.57;;;9.80;73.60;;;;;;5006756;28;80840;-70
2020/12/18 09:04:26;;;;;;;16.88;7.57;;;9.80;73.30;;;;;;5006906;28;80200;-68
2020/12/18 09:06:52;;;;;;;18.90;8.95;;;9.80;73.10;;;;;;5006428;28;80469;-67
2020/12/18 09:09:18;;;;;;;12.82;7.22;;;9.80;72.90;;;;;;5005789;28;80132;-68
2020/12/18 09:11:49;;;;;;;14.18;7.13;;;9.80;72.90;;;;;;5007076;28;79803;-68
2020/12/18 09:14:28;;;;;;;15.65;7.28;;;9.90;72.60;;;;;;5006848;28;80343;-68
2020/12/18 09:16:57;;;;;;;16.90;7.93;;;10.00;72.20;;;;;;5005676;28;81946;-68
2020/12/18 09:19:23;;;;;;;16.00;8.38;;;9.90;72.10;;;;;;4988490;28;83513;-68
2020/12/18 09:21:49;;;;;;;16.58;8.27;;;10.00;72.20;;;;;;4989167;28;81804;-68
2020/12/18 09:24:16;;;;;;;13.75;7.25;;;10.00;72.10;;;;;;4988118;28;82344;-67
2020/12/18 09:26:42;;;;;;;14.60;8.38;;;10.00;72.20;;;;;;4988020;28;81892;-69
2020/12/18 09:29:16;;;;;;;15.85;7.55;;;10.10;72.30;;;;;;5006595;28;80106;-67
2020/12/18 09:31:41;;;;;;;22.48;8.02;;;10.20;72.10;;;;;;5006224;28;81040;-67
2020/12/18 09:34:15;;;;;;;22.48;8.52;;;10.30;71.80;;;;;;5006289;28;80050;-69
2020/12/18 09:36:41;;;;;;;18.35;8.88;;;10.40;71.60;;;;;;5006228;28;80800;-67
2020/12/18 09:39:07;;;;;;;18.63;8.68;;;10.40;71.00;;;;;;5006265;28;80197;-68
2020/12/18 09:41:33;;;;;;;16.63;8.35;;;10.40;71.10;;;;;;5006001;28;81936;-69
2020/12/18 09:43:58;;;;;;;15.43;7.53;;;10.50;71.00;;;;;;5006327;28;79932;-69
2020/12/18 09:46:24;;;;;;;17.60;7.10;;;10.50;70.80;;;;;;5006442;28;80656;-68
2020/12/18 09:48:51;;;;;;;14.68;7.95;;;10.50;70.70;;;;;;5006172;28;80179;-67
2020/12/18 09:51:18;;;;;;;16.30;7.90;;;10.60;70.50;;;;;;5006524;28;80601;-69
2020/12/18 09:53:47;;;;;;;17.05;8.00;;;10.70;70.40;;;;;;5006085;28;80894;-68
2020/12/18 09:56:14;;;;;;;14.60;8.70;;;10.80;70.10;;;;;;5006148;28;80379;-66
2020/12/18 09:58:40;;;;;;;24.98;10.13;;;10.80;69.90;;;;;;4988209;28;81661;-66
2020/12/18 10:01:06;;;;;;;17.05;8.35;;;10.90;69.90;;;;;;5003530;28;83227;-70
2020/12/18 10:03:32;;;;;;;19.88;9.60;;;10.90;69.90;;;;;;5006179;28;82846;-68
2020/12/18 10:05:58;;;;;;;18.23;10.30;;;10.90;69.70;;;;;;5006013;28;80624;-70
2020/12/18 10:08:24;;;;;;;22.77;10.50;;;11.10;69.30;;;;;;4985823;28;82664;-67
2020/12/18 10:10:49;;;;;;;26.77;12.05;;;11.50;68.60;;;;;;4985064;28;86159;-69
2020/12/18 10:13:15;;;;;;;19.85;10.38;;;11.80;67.60;;;;;;5003661;28;82564;-68
2020/12/18 10:15:41;;;;;;;25.00;10.75;;;11.90;66.90;;;;;;5003220;28;82746;-68
2020/12/18 10:18:07;;;;;;;27.95;11.63;;;12.00;66.90;;;;;;5002772;28;82695;-69
2020/12/18 10:20:33;;;;;;;23.85;10.60;;;11.90;66.90;;;;;;4987892;28;83762;-68
2020/12/18 10:22:59;;;;;;;31.08;13.90;;;11.90;67.00;;;;;;5005843;28;82878;-67
2020/12/18 10:25:25;;;;;;;35.00;15.70;;;11.90;67.70;;;;;;4988010;28;85228;-69
2020/12/18 10:27:51;;;;;;;79.07;41.20;;;11.90;68.50;;;;;;5005665;28;83391;-69
2020/12/18 10:30:17;;;;;;;119.70;61.47;;;11.90;68.90;;;;;;5005240;28;83745;-69
2020/12/18 10:32:43;;;;;;;27.90;15.73;;;11.90;69.20;;;;;;5005413;28;84084;-67
2020/12/18 10:35:10;;;;;;;35.25;17.23;;;11.90;69.30;;;;;;5005375;28;83201;-68
2020/12/18 10:37:35;;;;;;;26.17;14.23;;;11.80;69.80;;;;;;4987398;28;85552;-69
2020/12/18 10:40:03;;;;;;;27.20;15.80;;;11.70;70.10;;;;;;5005659;28;83240;-68
2020/12/18 10:42:29;;;;;;;34.80;15.40;;;11.80;70.30;;;;;;4987656;28;84576;-68
2020/12/18 10:44:55;;;;;;;29.60;15.88;;;11.80;70.30;;;;;;5005694;28;83174;-69
2020/12/18 10:47:20;;;;;;;30.70;15.48;;;11.80;70.30;;;;;;5006027;28;82631;-69
2020/12/18 10:49:46;;;;;;;27.50;15.25;;;11.90;70.30;;;;;;5006133;28;82973;-68
2020/12/18 10:52:12;;;;;;;26.95;14.05;;;11.80;70.40;;;;;;4987157;28;84057;-68
2020/12/18 10:54:38;;;;;;;30.00;14.63;;;11.80;70.50;;;;;;5005859;28;83130;-70
2020/12/18 10:57:04;;;;;;;26.45;14.80;;;11.90;70.30;;;;;;4987092;28;84696;-68
2020/12/18 10:59:31;;;;;;;27.38;14.57;;;12.00;70.20;;;;;;5005787;28;83320;-69
2020/12/18 11:01:58;;;;;;;37.10;18.35;;;12.10;70.10;;;;;;5004877;28;84180;-67
2020/12/18 11:04:25;;;;;;;27.02;15.13;;;12.20;69.70;;;;;;4986890;28;85030;-66
2020/12/18 11:06:51;;;;;;;29.20;16.00;;;12.30;69.20;;;;;;4987284;28;86039;-66
2020/12/18 11:09:17;;;;;;;29.05;14.43;;;12.40;69.40;;;;;;5005396;28;83285;-70
2020/12/18 11:11:51;;;;;;;30.52;13.48;;;12.50;68.90;;;;;;4987209;28;83099;-68
2020/12/18 11:14:17;;;;;;;27.20;14.15;;;12.70;68.80;;;;;;5005068;28;83350;-69
2020/12/18 11:16:42;;;;;;;29.85;14.55;;;12.90;68.50;;;;;;5005034;28;82931;-70
2020/12/18 11:19:08;;;;;;;29.30;14.55;;;12.90;68.10;;;;;;5005398;28;83358;-67
2020/12/18 11:21:34;;;;;;;31.70;15.15;;;13.00;68.10;;;;;;5004860;28;82769;-71
2020/12/18 11:23:59;;;;;;;35.60;15.93;;;13.10;68.00;;;;;;4987470;28;84120;-69
2020/12/18 11:26:26;;;;;;;33.60;15.77;;;13.10;68.00;;;;;;4986127;28;84114;-69
2020/12/18 11:28:52;;;;;;;32.10;15.05;;;13.20;67.80;;;;;;5004940;28;83337;-69
2020/12/18 11:31:19;;;;;;;31.45;15.82;;;13.40;67.50;;;;;;5003945;28;82807;-73
2020/12/18 11:33:44;;;;;;;31.85;16.38;;;13.20;67.50;;;;;;4986564;28;85936;-70
2020/12/18 11:36:10;;;;;;;35.75;15.82;;;13.10;67.70;;;;;;5004930;28;82881;-68
2020/12/18 11:38:36;;;;;;;33.00;16.58;;;13.00;67.80;;;;;;5004205;28;83150;-72
2020/12/18 11:41:02;;;;;;;37.22;17.55;;;13.10;67.70;;;;;;5004678;28;83096;-74
2020/12/18 11:43:28;;;;;;;36.22;18.25;;;13.10;67.80;;;;;;4986426;28;84962;-72
2020/12/18 11:45:54;;;;;;;38.67;20.50;;;13.20;67.70;;;;;;5004864;28;82445;-68
2020/12/18 11:48:19;;;;;;;43.35;19.90;;;13.40;67.30;;;;;;5004438;28;83340;-66
2020/12/18 11:50:46;;;;;;;45.45;19.95;;;13.50;66.80;;;;;;5004288;28;82594;-68
2020/12/18 11:53:12;;;;;;;38.55;19.15;;;13.70;66.30;;;;;;4986344;28;85276;-68
2020/12/18 11:55:38;;;;;;;40.40;19.20;;;13.90;65.80;;;;;;5003770;28;83960;-72
2020/12/18 11:58:04;;;;;;;74.00;21.88;;;14.00;65.00;;;;;;4986515;28;84446;-70
2020/12/18 12:00:30;;;;;;;37.33;18.15;;;14.10;64.70;;;;;;5004199;28;82574;-70
2020/12/18 12:02:56;;;;;;;45.38;19.30;;;14.40;64.00;;;;;;5004290;28;82459;-68
2020/12/18 12:05:23;;;;;;;36.88;18.67;;;14.40;63.80;;;;;;5004306;28;82980;-67
2020/12/18 12:07:49;;;;;;;42.08;19.42;;;14.40;63.70;;;;;;5004210;28;83378;-68
2020/12/18 12:10:17;;;;;;;42.95;18.67;;;14.50;63.50;;;;;;4986329;28;84311;-67
2020/12/18 12:12:43;;;;;;;41.45;19.15;;;14.50;63.40;;;;;;5004521;28;83283;-70
2020/12/18 12:15:09;;;;;;;45.45;21.77;;;14.50;63.50;;;;;;4986251;28;86011;-70
2020/12/18 12:17:35;;;;;;;39.72;18.00;;;14.50;63.60;;;;;;4985761;28;85152;-73
2020/12/18 12:20:02;;;;;;;36.28;15.88;;;14.50;63.80;;;;;;4985756;28;85071;-72
2020/12/18 12:22:28;;;;;;;32.50;15.15;;;14.50;63.80;;;;;;4986202;28;82743;-71
2020/12/18 12:24:55;;;;;;;30.75;15.32;;;14.60;63.80;;;;;;5004478;28;83024;-68
2020/12/18 12:27:22;;;;;;;34.15;16.15;;;14.50;63.50;;;;;;5003978;28;82488;-68
2020/12/18 12:29:48;;;;;;;30.50;15.30;;;14.60;63.30;;;;;;5003823;28;84396;-72
2020/12/18 12:32:14;;;;;;;29.77;14.70;;;14.60;63.40;;;;;;5003877;28;83107;-72
2020/12/18 12:34:40;;;;;;;27.42;13.63;;;14.60;63.30;;;;;;4985605;28;85828;-74
2020/12/18 12:37:06;;;;;;;30.35;14.93;;;14.60;63.60;;;;;;5004218;28;83280;-71
2020/12/18 12:39:32;;;;;;;27.27;14.18;;;14.50;63.70;;;;;;5003899;28;82465;-71
2020/12/18 12:42:01;;;;;;;29.80;14.40;;;14.50;63.90;;;;;;4985211;28;86148;-70
2020/12/18 12:44:27;;;;;;;28.15;14.15;;;14.50;63.80;;;;;;5004000;28;82820;-70
2020/12/18 12:46:53;;;;;;;29.38;15.02;;;14.40;64.00;;;;;;5003693;28;84085;-69
2020/12/18 12:49:19;;;;;;;32.38;14.82;;;14.40;64.40;;;;;;5003747;28;84002;-71